sensor_id;sensor_type;location;lat;lon;timestamp;temperature;humidity
69747;DHT22;57018;50.278;19.134;2022-10-16T00:03:35;14.60;88.40
69747;DHT22;57018;50.278;19.134;2022-10-16T00:06:01;14.70;88.70
69747;DHT22;57018;50.278;19.134;2022-10-16T00:08:28;14.60;88.90
69747;DHT22;57018;50.278;19.134;2022-10-16T00:11:02;14.60;89.30
69747;DHT22;57018;50.278;19.134;2022-10-16T00:13:30;14.60;89.00
69747;DHT22;57018;50.278;19.134;2022-10-16T00:15:58;14.70;89.10
69747;DHT22;57018;50.278;19.134;2022-10-16T00:18:26;14.70;89.40
69747;DHT22;57018;50.278;19.134;2022-10-16T00:20:53;14.70;88.90
69747;DHT22;57018;50.278;19.134;2022-10-16T00:23:20;14.70;89.20
69747;DHT22;57018;50.278;19.134;2022-10-16T00:25:55;14.60;89.10
69747;DHT22;57018;50.278;19.134;2022-10-16T00:28:21;14.50;90.10
69747;DHT22;57018;50.278;19.134;2022-10-16T00:30:47;14.40;90.80
69747;DHT22;57018;50.278;19.134;2022-10-16T00:33:13;14.30;91.00
69747;DHT22;57018;50.278;19.134;2022-10-16T00:35:39;14.30;91.40
69747;DHT22;57018;50.278;19.134;2022-10-16T00:38:05;14.20;91.30
69747;DHT22;57018;50.278;19.134;2022-10-16T00:40:31;14.00;92.50
69747;DHT22;57018;50.278;19.134;2022-10-16T00:42:58;14.00;92.00
69747;DHT22;57018;50.278;19.134;2022-10-16T00:45:24;13.80;94.10
69747;DHT22;57018;50.278;19.134;2022-10-16T00:47:52;13.80;94.00
69747;DHT22;57018;50.278;19.134;2022-10-16T00:50:32;13.70;94.20
69747;DHT22;57018;50.278;19.134;2022-10-16T00:52:56;13.50;94.80
69747;DHT22;57018;50.278;19.134;2022-10-16T00:55:25;13.50;94.80
69747;DHT22;57018;50.278;19.134;2022-10-16T00:57:52;13.30;95.10
69747;DHT22;57018;50.278;19.134;2022-10-16T01:00:21;13.30;96.10
69747;DHT22;57018;50.278;19.134;2022-10-16T01:02:59;13.30;96.90
69747;DHT22;57018;50.278;19.134;2022-10-16T01:05:44;13.10;97.40
69747;DHT22;57018;50.278;19.134;2022-10-16T01:08:18;13.00;97.70
69747;DHT22;57018;50.278;19.134;2022-10-16T01:13:15;12.90;98.10
69747;DHT22;57018;50.278;19.134;2022-10-16T01:16:00;12.90;98.10
69747;DHT22;57018;50.278;19.134;2022-10-16T01:21:11;12.90;97.70
69747;DHT22;57018;50.278;19.134;2022-10-16T01:24:00;13.00;97.70
69747;DHT22;57018;50.278;19.134;2022-10-16T01:29:33;13.00;97.90
69747;DHT22;57018;50.278;19.134;2022-10-16T01:32:00;13.00;98.50
69747;DHT22;57018;50.278;19.134;2022-10-16T01:34:49;13.00;98.70
69747;DHT22;57018;50.278;19.134;2022-10-16T01:37:29;12.90;98.80
69747;DHT22;57018;50.278;19.134;2022-10-16T01:39:52;12.90;98.40
69747;DHT22;57018;50.278;19.134;2022-10-16T01:42:23;12.90;98.70
69747;DHT22;57018;50.278;19.134;2022-10-16T01:44:51;12.90;99.30
69747;DHT22;57018;50.278;19.134;2022-10-16T01:47:22;12.90;99.00
69747;DHT22;57018;50.278;19.134;2022-10-16T01:49:49;12.90;99.30
69747;DHT22;57018;50.278;19.134;2022-10-16T01:52:19;12.90;99.80
69747;DHT22;57018;50.278;19.134;2022-10-16T01:54:47;12.80;99.30
69747;DHT22;57018;50.278;19.134;2022-10-16T01:57:16;12.90;99.90
69747;DHT22;57018;50.278;19.134;2022-10-16T01:59:46;12.80;99.90
69747;DHT22;57018;50.278;19.134;2022-10-16T02:02:15;12.80;99.70
69747;DHT22;57018;50.278;19.134;2022-10-16T02:04:56;12.80;99.90
69747;DHT22;57018;50.278;19.134;2022-10-16T02:07:18;12.70;99.90
69747;DHT22;57018;50.278;19.134;2022-10-16T02:09:44;12.70;99.90
69747;DHT22;57018;50.278;19.134;2022-10-16T02:12:23;12.60;99.90
69747;DHT22;57018;50.278;19.134;2022-10-16T02:14:47;12.60;99.90
69747;DHT22;57018;50.278;19.134;2022-10-16T02:17:15;12.60;99.90
69747;DHT22;57018;50.278;19.134;2022-10-16T02:19:42;12.60;99.90
69747;DHT22;57018;50.278;19.134;2022-10-16T02:22:19;12.60;99.90
69747;DHT22;57018;50.278;19.134;2022-10-16T02:27:40;12.50;99.90
69747;DHT22;57018;50.278;19.134;2022-10-16T02:30:19;12.60;99.90
69747;DHT22;57018;50.278;19.134;2022-10-16T02:32:46;12.40;99.90
69747;DHT22;57018;50.278;19.134;2022-10-16T02:35:16;12.40;99.90
69747;DHT22;57018;50.278;19.134;2022-10-16T02:37:43;12.30;99.90
69747;DHT22;57018;50.278;19.134;2022-10-16T02:40:11;12.10;99.90
69747;DHT22;57018;50.278;19.134;2022-10-16T02:42:40;12.20;99.90
69747;DHT22;57018;50.278;19.134;2022-10-16T02:45:08;12.10;99.90
69747;DHT22;57018;50.278;19.134;2022-10-16T02:47:34;12.20;99.90
69747;DHT22;57018;50.278;19.134;2022-10-16T02:50:01;12.10;99.90
69747;DHT22;57018;50.278;19.134;2022-10-16T02:52:27;12.10;99.90
69747;DHT22;57018;50.278;19.134;2022-10-16T02:54:53;12.10;99.90
69747;DHT22;57018;50.278;19.134;2022-10-16T02:57:19;12.00;99.90
69747;DHT22;57018;50.278;19.134;2022-10-16T02:59:45;11.90;99.90
69747;DHT22;57018;50.278;19.134;2022-10-16T03:02:11;11.90;99.90
69747;DHT22;57018;50.278;19.134;2022-10-16T03:04:38;11.90;99.90
69747;DHT22;57018;50.278;19.134;2022-10-16T03:07:04;11.70;99.90
69747;DHT22;57018;50.278;19.134;2022-10-16T03:09:30;11.80;99.90
69747;DHT22;57018;50.278;19.134;2022-10-16T03:11:56;11.70;99.90
69747;DHT22;57018;50.278;19.134;2022-10-16T03:14:22;11.60;99.90
69747;DHT22;57018;50.278;19.134;2022-10-16T03:16:48;11.40;99.90
69747;DHT22;57018;50.278;19.134;2022-10-16T03:19:16;11.40;99.90
69747;DHT22;57018;50.278;19.134;2022-10-16T03:21:43;11.30;99.90
69747;DHT22;57018;50.278;19.134;2022-10-16T03:24:09;11.30;99.90
69747;DHT22;57018;50.278;19.134;2022-10-16T03:26:35;11.30;99.90
69747;DHT22;57018;50.278;19.134;2022-10-16T03:29:01;11.20;99.90
69747;DHT22;57018;50.278;19.134;2022-10-16T03:31:29;11.10;99.90
69747;DHT22;57018;50.278;19.134;2022-10-16T03:33:56;11.20;99.90
69747;DHT22;57018;50.278;19.134;2022-10-16T03:36:22;11.20;99.90
69747;DHT22;57018;50.278;19.134;2022-10-16T03:38:48;11.10;99.90
69747;DHT22;57018;50.278;19.134;2022-10-16T03:41:14;11.10;99.90
69747;DHT22;57018;50.278;19.134;2022-10-16T03:43:40;11.20;99.90
69747;DHT22;57018;50.278;19.134;2022-10-16T03:46:06;11.20;99.90
69747;DHT22;57018;50.278;19.134;2022-10-16T03:48:32;11.10;99.90
69747;DHT22;57018;50.278;19.134;2022-10-16T03:50:59;11.00;99.90
69747;DHT22;57018;50.278;19.134;2022-10-16T03:53:25;11.00;99.90
69747;DHT22;57018;50.278;19.134;2022-10-16T03:55:51;10.90;99.90
69747;DHT22;57018;50.278;19.134;2022-10-16T03:58:17;10.90;99.90
69747;DHT22;57018;50.278;19.134;2022-10-16T04:00:44;10.90;99.90
69747;DHT22;57018;50.278;19.134;2022-10-16T04:03:11;10.90;99.90
69747;DHT22;57018;50.278;19.134;2022-10-16T04:05:37;10.90;99.90
69747;DHT22;57018;50.278;19.134;2022-10-16T04:08:04;10.90;99.90
69747;DHT22;57018;50.278;19.134;2022-10-16T04:10:30;10.80;99.90
69747;DHT22;57018;50.278;19.134;2022-10-16T04:12:56;10.80;99.90
69747;DHT22;57018;50.278;19.134;2022-10-16T04:15:23;10.80;99.90
69747;DHT22;57018;50.278;19.134;2022-10-16T04:17:50;10.70;99.90
69747;DHT22;57018;50.278;19.134;2022-10-16T04:20:16;10.70;99.90
69747;DHT22;57018;50.278;19.134;2022-10-16T04:22:42;10.80;99.90
69747;DHT22;57018;50.278;19.134;2022-10-16T04:25:09;10.80;99.90
69747;DHT22;57018;50.278;19.134;2022-10-16T04:27:35;10.80;99.90
69747;DHT22;57018;50.278;19.134;2022-10-16T04:30:01;10.90;99.90
69747;DHT22;57018;50.278;19.134;2022-10-16T04:32:28;11.00;99.90
69747;DHT22;57018;50.278;19.134;2022-10-16T04:34:54;10.90;99.90
69747;DHT22;57018;50.278;19.134;2022-10-16T04:37:25;10.90;99.90
69747;DHT22;57018;50.278;19.134;2022-10-16T04:39:52;10.90;99.90
69747;DHT22;57018;50.278;19.134;2022-10-16T04:42:20;10.90;99.90
69747;DHT22;57018;50.278;19.134;2022-10-16T04:44:46;11.10;99.90
69747;DHT22;57018;50.278;19.134;2022-10-16T04:47:13;11.10;99.90
69747;DHT22;57018;50.278;19.134;2022-10-16T04:49:39;11.10;99.90
69747;DHT22;57018;50.278;19.134;2022-10-16T04:52:06;11.20;99.90
69747;DHT22;57018;50.278;19.134;2022-10-16T04:54:32;11.20;99.90
69747;DHT22;57018;50.278;19.134;2022-10-16T04:56:58;11.30;99.90
69747;DHT22;57018;50.278;19.134;2022-10-16T04:59:24;11.30;99.90
69747;DHT22;57018;50.278;19.134;2022-10-16T05:01:50;11.40;99.90
69747;DHT22;57018;50.278;19.134;2022-10-16T05:04:16;11.50;99.90
69747;DHT22;57018;50.278;19.134;2022-10-16T05:06:42;11.50;99.90
69747;DHT22;57018;50.278;19.134;2022-10-16T05:09:08;11.50;99.90
69747;DHT22;57018;50.278;19.134;2022-10-16T05:11:35;11.60;99.90
69747;DHT22;57018;50.278;19.134;2022-10-16T05:14:01;11.60;99.90
69747;DHT22;57018;50.278;19.134;2022-10-16T05:16:28;11.70;99.90
69747;DHT22;57018;50.278;19.134;2022-10-16T05:18:56;11.70;99.90
69747;DHT22;57018;50.278;19.134;2022-10-16T05:21:23;11.80;99.90
69747;DHT22;57018;50.278;19.134;2022-10-16T05:23:49;11.90;99.90
69747;DHT22;57018;50.278;19.134;2022-10-16T05:26:15;11.80;99.90
69747;DHT22;57018;50.278;19.134;2022-10-16T05:28:41;11.90;99.90
69747;DHT22;57018;50.278;19.134;2022-10-16T05:31:09;12.00;99.90
69747;DHT22;57018;50.278;19.134;2022-10-16T05:33:36;12.00;99.90
69747;DHT22;57018;50.278;19.134;2022-10-16T05:36:04;12.00;99.90
69747;DHT22;57018;50.278;19.134;2022-10-16T05:38:31;12.00;99.90
69747;DHT22;57018;50.278;19.134;2022-10-16T05:40:57;12.10;99.90
69747;DHT22;57018;50.278;19.134;2022-10-16T05:43:23;12.10;99.90
69747;DHT22;57018;50.278;19.134;2022-10-16T05:46:01;12.10;99.90
69747;DHT22;57018;50.278;19.134;2022-10-16T05:48:28;12.30;99.90
69747;DHT22;57018;50.278;19.134;2022-10-16T05:51:03;12.20;99.90
69747;DHT22;57018;50.278;19.134;2022-10-16T05:53:31;12.30;99.90
69747;DHT22;57018;50.278;19.134;2022-10-16T05:55:58;12.40;99.90
69747;DHT22;57018;50.278;19.134;2022-10-16T05:58:27;12.50;99.90
69747;DHT22;57018;50.278;19.134;2022-10-16T06:01:02;12.50;99.90
69747;DHT22;57018;50.278;19.134;2022-10-16T06:03:29;12.50;99.90
69747;DHT22;57018;50.278;19.134;2022-10-16T06:05:55;12.60;99.90
69747;DHT22;57018;50.278;19.134;2022-10-16T06:08:22;12.70;99.90
69747;DHT22;57018;50.278;19.134;2022-10-16T06:11:00;12.80;99.90
69747;DHT22;57018;50.278;19.134;2022-10-16T06:13:28;12.90;99.90
69747;DHT22;57018;50.278;19.134;2022-10-16T06:15:56;13.00;99.90
69747;DHT22;57018;50.278;19.134;2022-10-16T06:18:22;13.20;99.90
69747;DHT22;57018;50.278;19.134;2022-10-16T06:20:49;13.30;99.90
69747;DHT22;57018;50.278;19.134;2022-10-16T06:23:15;13.40;99.90
69747;DHT22;57018;50.278;19.134;2022-10-16T06:25:41;13.50;99.90
69747;DHT22;57018;50.278;19.134;2022-10-16T06:28:07;13.80;99.70
69747;DHT22;57018;50.278;19.134;2022-10-16T06:30:33;13.80;99.50
69747;DHT22;57018;50.278;19.134;2022-10-16T06:32:59;13.90;99.10
69747;DHT22;57018;50.278;19.134;2022-10-16T06:35:25;14.10;98.10
69747;DHT22;57018;50.278;19.134;2022-10-16T06:37:53;14.00;97.50
69747;DHT22;57018;50.278;19.134;2022-10-16T06:40:19;14.20;96.80
69747;DHT22;57018;50.278;19.134;2022-10-16T06:42:45;14.40;96.80
69747;DHT22;57018;50.278;19.134;2022-10-16T06:45:11;14.50;96.50
69747;DHT22;57018;50.278;19.134;2022-10-16T06:47:38;14.60;95.60
69747;DHT22;57018;50.278;19.134;2022-10-16T06:50:05;14.80;94.70
69747;DHT22;57018;50.278;19.134;2022-10-16T06:52:34;14.90;93.90
69747;DHT22;57018;50.278;19.134;2022-10-16T06:55:00;15.10;93.50
69747;DHT22;57018;50.278;19.134;2022-10-16T06:57:29;15.20;92.20
69747;DHT22;57018;50.278;19.134;2022-10-16T06:59:55;15.50;90.10
69747;DHT22;57018;50.278;19.134;2022-10-16T07:02:21;15.60;89.70
69747;DHT22;57018;50.278;19.134;2022-10-16T07:04:47;15.80;89.00
69747;DHT22;57018;50.278;19.134;2022-10-16T07:07:13;16.00;88.50
69747;DHT22;57018;50.278;19.134;2022-10-16T07:09:40;16.20;86.80
69747;DHT22;57018;50.278;19.134;2022-10-16T07:12:06;16.50;86.30
69747;DHT22;57018;50.278;19.134;2022-10-16T07:14:33;16.70;84.80
69747;DHT22;57018;50.278;19.134;2022-10-16T07:16:59;17.00;84.40
69747;DHT22;57018;50.278;19.134;2022-10-16T07:19:26;17.20;83.00
69747;DHT22;57018;50.278;19.134;2022-10-16T07:21:52;17.10;82.10
69747;DHT22;57018;50.278;19.134;2022-10-16T07:24:19;17.30;81.60
69747;DHT22;57018;50.278;19.134;2022-10-16T07:26:45;17.40;81.80
69747;DHT22;57018;50.278;19.134;2022-10-16T07:29:17;17.40;81.20
69747;DHT22;57018;50.278;19.134;2022-10-16T07:31:45;17.50;80.90
69747;DHT22;57018;50.278;19.134;2022-10-16T07:34:12;17.50;79.40
69747;DHT22;57018;50.278;19.134;2022-10-16T07:36:39;17.40;80.30
69747;DHT22;57018;50.278;19.134;2022-10-16T07:39:05;17.60;80.40
69747;DHT22;57018;50.278;19.134;2022-10-16T07:41:31;17.60;80.20
69747;DHT22;57018;50.278;19.134;2022-10-16T07:43:59;17.80;79.90
69747;DHT22;57018;50.278;19.134;2022-10-16T07:46:26;17.90;79.20
69747;DHT22;57018;50.278;19.134;2022-10-16T07:48:53;18.00;78.80
69747;DHT22;57018;50.278;19.134;2022-10-16T07:51:22;18.10;78.10
69747;DHT22;57018;50.278;19.134;2022-10-16T07:53:49;18.30;76.70
69747;DHT22;57018;50.278;19.134;2022-10-16T07:56:16;18.40;76.10
69747;DHT22;57018;50.278;19.134;2022-10-16T07:58:42;18.60;75.80
69747;DHT22;57018;50.278;19.134;2022-10-16T08:01:11;18.70;75.50
69747;DHT22;57018;50.278;19.134;2022-10-16T08:03:37;18.90;75.30
69747;DHT22;57018;50.278;19.134;2022-10-16T08:06:04;18.90;75.10
69747;DHT22;57018;50.278;19.134;2022-10-16T08:08:31;18.90;74.70
69747;DHT22;57018;50.278;19.134;2022-10-16T08:10:57;18.90;74.60
69747;DHT22;57018;50.278;19.134;2022-10-16T08:13:23;18.90;74.00
69747;DHT22;57018;50.278;19.134;2022-10-16T08:15:50;18.90;73.20
69747;DHT22;57018;50.278;19.134;2022-10-16T08:18:16;18.80;73.00
69747;DHT22;57018;50.278;19.134;2022-10-16T08:20:43;18.90;72.40
69747;DHT22;57018;50.278;19.134;2022-10-16T08:23:11;19.00;72.10
69747;DHT22;57018;50.278;19.134;2022-10-16T08:25:40;19.20;71.20
69747;DHT22;57018;50.278;19.134;2022-10-16T08:28:09;19.30;71.10
69747;DHT22;57018;50.278;19.134;2022-10-16T08:30:36;19.50;70.50
69747;DHT22;57018;50.278;19.134;2022-10-16T08:33:03;19.70;69.80
69747;DHT22;57018;50.278;19.134;2022-10-16T08:35:29;19.70;69.00
69747;DHT22;57018;50.278;19.134;2022-10-16T08:37:55;19.90;68.10
69747;DHT22;57018;50.278;19.134;2022-10-16T08:40:27;20.20;67.50
69747;DHT22;57018;50.278;19.134;2022-10-16T08:42:59;20.30;67.00
69747;DHT22;57018;50.278;19.134;2022-10-16T08:45:34;20.30;66.30
69747;DHT22;57018;50.278;19.134;2022-10-16T08:48:20;20.40;66.50
69747;DHT22;57018;50.278;19.134;2022-10-16T08:50:47;20.60;65.80
69747;DHT22;57018;50.278;19.134;2022-10-16T08:53:59;20.70;65.20
69747;DHT22;57018;50.278;19.134;2022-10-16T08:55:50;20.70;64.90
69747;DHT22;57018;50.278;19.134;2022-10-16T08:58:20;20.90;64.30
69747;DHT22;57018;50.278;19.134;2022-10-16T09:01:10;21.00;62.10
69747;DHT22;57018;50.278;19.134;2022-10-16T09:14:32;21.00;62.10
69747;DHT22;57018;50.278;19.134;2022-10-16T09:17:00;20.90;63.40
69747;DHT22;57018;50.278;19.134;2022-10-16T09:19:37;20.80;63.00
69747;DHT22;57018;50.278;19.134;2022-10-16T09:22:10;20.80;63.50
69747;DHT22;57018;50.278;19.134;2022-10-16T09:24:38;20.80;63.40
69747;DHT22;57018;50.278;19.134;2022-10-16T09:27:04;20.80;64.00
69747;DHT22;57018;50.278;19.134;2022-10-16T09:29:30;21.00;62.40
69747;DHT22;57018;50.278;19.134;2022-10-16T09:31:58;21.20;61.90
69747;DHT22;57018;50.278;19.134;2022-10-16T09:34:34;21.50;60.80
69747;DHT22;57018;50.278;19.134;2022-10-16T09:37:04;21.50;60.20
69747;DHT22;57018;50.278;19.134;2022-10-16T09:39:43;21.60;59.90
69747;DHT22;57018;50.278;19.134;2022-10-16T09:42:01;21.60;59.80
69747;DHT22;57018;50.278;19.134;2022-10-16T09:44:29;21.50;60.10
69747;DHT22;57018;50.278;19.134;2022-10-16T09:47:14;21.60;59.60
69747;DHT22;57018;50.278;19.134;2022-10-16T09:49:50;21.60;59.90
69747;DHT22;57018;50.278;19.134;2022-10-16T09:52:12;21.80;59.70
69747;DHT22;57018;50.278;19.134;2022-10-16T09:54:53;22.00;59.00
69747;DHT22;57018;50.278;19.134;2022-10-16T09:57:20;22.30;57.90
69747;DHT22;57018;50.278;19.134;2022-10-16T09:59:54;22.60;57.80
69747;DHT22;57018;50.278;19.134;2022-10-16T10:02:19;22.70;57.60
69747;DHT22;57018;50.278;19.134;2022-10-16T10:04:53;23.00;57.30
69747;DHT22;57018;50.278;19.134;2022-10-16T10:07:29;23.30;56.80
69747;DHT22;57018;50.278;19.134;2022-10-16T10:09:57;23.40;56.40
69747;DHT22;57018;50.278;19.134;2022-10-16T10:12:25;23.40;55.60
69747;DHT22;57018;50.278;19.134;2022-10-16T10:14:58;23.50;56.00
69747;DHT22;57018;50.278;19.134;2022-10-16T10:17:26;23.40;56.00
69747;DHT22;57018;50.278;19.134;2022-10-16T10:19:55;23.30;55.80
69747;DHT22;57018;50.278;19.134;2022-10-16T10:35:44;23.30;56.00
69747;DHT22;57018;50.278;19.134;2022-10-16T10:38:32;23.40;56.60
69747;DHT22;57018;50.278;19.134;2022-10-16T10:46:48;23.60;54.50
69747;DHT22;57018;50.278;19.134;2022-10-16T10:54:54;23.70;53.90
69747;DHT22;57018;50.278;19.134;2022-10-16T11:02:52;24.00;53.60
69747;DHT22;57018;50.278;19.134;2022-10-16T11:05:24;23.80;53.80
69747;DHT22;57018;50.278;19.134;2022-10-16T11:07:57;23.80;53.90
69747;DHT22;57018;50.278;19.134;2022-10-16T11:10:25;23.80;53.60
69747;DHT22;57018;50.278;19.134;2022-10-16T11:13:55;23.70;53.80
69747;DHT22;57018;50.278;19.134;2022-10-16T11:15:33;24.00;53.80
69747;DHT22;57018;50.278;19.134;2022-10-16T11:18:11;24.00;53.30
69747;DHT22;57018;50.278;19.134;2022-10-16T11:20:42;24.00;53.20
69747;DHT22;57018;50.278;19.134;2022-10-16T11:25:51;24.10;53.30
69747;DHT22;57018;50.278;19.134;2022-10-16T11:28:20;24.00;52.90
69747;DHT22;57018;50.278;19.134;2022-10-16T11:30:54;23.80;53.20
69747;DHT22;57018;50.278;19.134;2022-10-16T11:35:55;23.80;53.50
69747;DHT22;57018;50.278;19.134;2022-10-16T11:38:32;23.80;53.40
69747;DHT22;57018;50.278;19.134;2022-10-16T11:41:02;23.80;53.60
69747;DHT22;57018;50.278;19.134;2022-10-16T11:43:35;23.80;53.80
69747;DHT22;57018;50.278;19.134;2022-10-16T11:46:08;23.90;53.50
69747;DHT22;57018;50.278;19.134;2022-10-16T11:48:39;24.00;53.20
69747;DHT22;57018;50.278;19.134;2022-10-16T11:56:30;24.40;52.20
69747;DHT22;57018;50.278;19.134;2022-10-16T11:59:07;24.20;52.60
69747;DHT22;57018;50.278;19.134;2022-10-16T12:01:48;24.20;52.50
69747;DHT22;57018;50.278;19.134;2022-10-16T12:04:19;24.00;52.50
69747;DHT22;57018;50.278;19.134;2022-10-16T12:06:51;23.90;52.60
69747;DHT22;57018;50.278;19.134;2022-10-16T12:09:30;23.90;52.90
69747;DHT22;57018;50.278;19.134;2022-10-16T12:11:53;23.80;52.60
69747;DHT22;57018;50.278;19.134;2022-10-16T12:17:22;23.50;54.90
69747;DHT22;57018;50.278;19.134;2022-10-16T12:19:33;23.40;54.90
69747;DHT22;57018;50.278;19.134;2022-10-16T12:22:01;23.30;55.30
69747;DHT22;57018;50.278;19.134;2022-10-16T12:24:44;23.20;55.50
69747;DHT22;57018;50.278;19.134;2022-10-16T12:27:30;23.00;55.60
69747;DHT22;57018;50.278;19.134;2022-10-16T12:29:59;22.80;55.90
69747;DHT22;57018;50.278;19.134;2022-10-16T12:35:04;22.80;56.40
69747;DHT22;57018;50.278;19.134;2022-10-16T12:37:36;22.90;56.50
69747;DHT22;57018;50.278;19.134;2022-10-16T12:40:15;23.00;56.20
69747;DHT22;57018;50.278;19.134;2022-10-16T12:42:42;23.00;56.10
69747;DHT22;57018;50.278;19.134;2022-10-16T12:45:26;23.20;56.00
69747;DHT22;57018;50.278;19.134;2022-10-16T12:47:54;23.20;55.70
69747;DHT22;57018;50.278;19.134;2022-10-16T12:50:30;23.10;55.60
69747;DHT22;57018;50.278;19.134;2022-10-16T12:52:54;23.00;56.20
69747;DHT22;57018;50.278;19.134;2022-10-16T12:55:21;22.80;56.70
69747;DHT22;57018;50.278;19.134;2022-10-16T12:58:19;22.70;57.00
69747;DHT22;57018;50.278;19.134;2022-10-16T13:00:57;22.40;58.10
69747;DHT22;57018;50.278;19.134;2022-10-16T13:04:25;22.20;58.70
69747;DHT22;57018;50.278;19.134;2022-10-16T13:06:14;21.90;59.60
69747;DHT22;57018;50.278;19.134;2022-10-16T13:08:56;21.80;60.20
69747;DHT22;57018;50.278;19.134;2022-10-16T13:17:05;21.40;61.50
69747;DHT22;57018;50.278;19.134;2022-10-16T13:20:06;21.40;62.10
69747;DHT22;57018;50.278;19.134;2022-10-16T13:22:59;21.30;62.40
69747;DHT22;57018;50.278;19.134;2022-10-16T13:28:00;21.10;63.50
69747;DHT22;57018;50.278;19.134;2022-10-16T13:30:28;21.00;64.20
69747;DHT22;57018;50.278;19.134;2022-10-16T13:33:06;20.90;64.20
69747;DHT22;57018;50.278;19.134;2022-10-16T13:35:31;21.10;64.40
69747;DHT22;57018;50.278;19.134;2022-10-16T13:38:15;21.20;64.30
69747;DHT22;57018;50.278;19.134;2022-10-16T13:40:33;21.10;64.20
69747;DHT22;57018;50.278;19.134;2022-10-16T13:43:00;21.10;64.60
69747;DHT22;57018;50.278;19.134;2022-10-16T13:45:27;21.20;64.40
69747;DHT22;57018;50.278;19.134;2022-10-16T13:48:04;21.30;64.40
69747;DHT22;57018;50.278;19.134;2022-10-16T13:50:31;21.20;64.70
69747;DHT22;57018;50.278;19.134;2022-10-16T13:53:09;21.20;64.80
69747;DHT22;57018;50.278;19.134;2022-10-16T13:55:34;21.00;65.50
69747;DHT22;57018;50.278;19.134;2022-10-16T13:58:14;21.00;66.30
69747;DHT22;57018;50.278;19.134;2022-10-16T14:00:55;20.90;66.10
69747;DHT22;57018;50.278;19.134;2022-10-16T14:03:23;20.80;67.90
69747;DHT22;57018;50.278;19.134;2022-10-16T14:05:55;20.60;68.50
69747;DHT22;57018;50.278;19.134;2022-10-16T14:08:23;20.50;68.90
69747;DHT22;57018;50.278;19.134;2022-10-16T14:10:54;20.50;69.10
69747;DHT22;57018;50.278;19.134;2022-10-16T14:15:56;20.50;69.50
69747;DHT22;57018;50.278;19.134;2022-10-16T14:18:26;20.50;69.30
69747;DHT22;57018;50.278;19.134;2022-10-16T14:20:53;20.50;69.60
69747;DHT22;57018;50.278;19.134;2022-10-16T14:23:37;20.50;69.20
69747;DHT22;57018;50.278;19.134;2022-10-16T14:26:12;20.60;68.90
69747;DHT22;57018;50.278;19.134;2022-10-16T14:28:40;20.50;68.60
69747;DHT22;57018;50.278;19.134;2022-10-16T14:31:28;20.50;68.30
69747;DHT22;57018;50.278;19.134;2022-10-16T14:33:54;20.50;68.30
69747;DHT22;57018;50.278;19.134;2022-10-16T14:36:22;20.50;68.00
69747;DHT22;57018;50.278;19.134;2022-10-16T14:41:24;20.60;67.80
69747;DHT22;57018;50.278;19.134;2022-10-16T14:44:01;20.70;67.10
69747;DHT22;57018;50.278;19.134;2022-10-16T14:46:38;20.90;65.20
69747;DHT22;57018;50.278;19.134;2022-10-16T14:49:13;21.10;65.00
69747;DHT22;57018;50.278;19.134;2022-10-16T14:51:31;21.30;64.00
69747;DHT22;57018;50.278;19.134;2022-10-16T14:53:58;21.40;63.70
69747;DHT22;57018;50.278;19.134;2022-10-16T14:56:27;21.40;63.60
69747;DHT22;57018;50.278;19.134;2022-10-16T14:58:54;21.50;63.00
69747;DHT22;57018;50.278;19.134;2022-10-16T15:01:21;21.40;63.10
69747;DHT22;57018;50.278;19.134;2022-10-16T15:03:47;21.30;63.30
69747;DHT22;57018;50.278;19.134;2022-10-16T15:06:15;21.00;63.30
69747;DHT22;57018;50.278;19.134;2022-10-16T15:08:42;20.90;64.50
69747;DHT22;57018;50.278;19.134;2022-10-16T15:11:16;20.70;65.90
69747;DHT22;57018;50.278;19.134;2022-10-16T15:13:44;20.60;66.30
69747;DHT22;57018;50.278;19.134;2022-10-16T15:16:15;20.50;66.70
69747;DHT22;57018;50.278;19.134;2022-10-16T15:18:42;20.20;67.10
69747;DHT22;57018;50.278;19.134;2022-10-16T15:21:15;20.20;67.60
69747;DHT22;57018;50.278;19.134;2022-10-16T15:23:38;20.00;68.20
69747;DHT22;57018;50.278;19.134;2022-10-16T15:26:04;19.90;68.50
69747;DHT22;57018;50.278;19.134;2022-10-16T15:28:31;19.70;69.40
69747;DHT22;57018;50.278;19.134;2022-10-16T15:30:57;19.60;69.90
69747;DHT22;57018;50.278;19.134;2022-10-16T15:33:25;19.50;70.30
69747;DHT22;57018;50.278;19.134;2022-10-16T15:35:54;19.30;71.70
69747;DHT22;57018;50.278;19.134;2022-10-16T15:38:22;19.20;73.00
69747;DHT22;57018;50.278;19.134;2022-10-16T15:40:49;19.10;72.70
69747;DHT22;57018;50.278;19.134;2022-10-16T15:43:16;19.00;73.20
69747;DHT22;57018;50.278;19.134;2022-10-16T15:45:42;19.00;73.80
69747;DHT22;57018;50.278;19.134;2022-10-16T15:48:13;18.90;74.50
69747;DHT22;57018;50.278;19.134;2022-10-16T15:50:40;18.90;74.50
69747;DHT22;57018;50.278;19.134;2022-10-16T15:53:06;18.90;74.80
69747;DHT22;57018;50.278;19.134;2022-10-16T15:55:33;18.70;75.40
69747;DHT22;57018;50.278;19.134;2022-10-16T15:57:59;18.60;75.50
69747;DHT22;57018;50.278;19.134;2022-10-16T16:00:25;18.40;75.70
69747;DHT22;57018;50.278;19.134;2022-10-16T16:02:53;18.30;76.50
69747;DHT22;57018;50.278;19.134;2022-10-16T16:05:20;18.20;76.80
69747;DHT22;57018;50.278;19.134;2022-10-16T16:07:47;18.00;78.30
69747;DHT22;57018;50.278;19.134;2022-10-16T16:10:14;17.90;78.50
69747;DHT22;57018;50.278;19.134;2022-10-16T16:12:41;17.80;79.00
69747;DHT22;57018;50.278;19.134;2022-10-16T16:15:08;17.70;79.20
69747;DHT22;57018;50.278;19.134;2022-10-16T16:17:35;17.60;79.80
69747;DHT22;57018;50.278;19.134;2022-10-16T16:20:03;17.50;79.70
69747;DHT22;57018;50.278;19.134;2022-10-16T16:22:30;17.40;80.20
69747;DHT22;57018;50.278;19.134;2022-10-16T16:24:56;17.40;80.90
69747;DHT22;57018;50.278;19.134;2022-10-16T16:27:22;17.30;81.20
69747;DHT22;57018;50.278;19.134;2022-10-16T16:29:50;17.20;82.30
69747;DHT22;57018;50.278;19.134;2022-10-16T16:32:16;17.10;82.90
69747;DHT22;57018;50.278;19.134;2022-10-16T16:34:42;17.00;83.40
69747;DHT22;57018;50.278;19.134;2022-10-16T16:37:08;17.00;83.60
69747;DHT22;57018;50.278;19.134;2022-10-16T16:39:34;16.90;84.20
69747;DHT22;57018;50.278;19.134;2022-10-16T16:42:00;16.90;84.60
69747;DHT22;57018;50.278;19.134;2022-10-16T16:44:28;16.80;84.90
69747;DHT22;57018;50.278;19.134;2022-10-16T16:46:55;16.70;85.20
69747;DHT22;57018;50.278;19.134;2022-10-16T16:49:21;16.50;85.60
69747;DHT22;57018;50.278;19.134;2022-10-16T16:51:47;16.50;85.80